Time;durP1;ratioP1;P1;durP2;ratioP2;P2;SDS_P1;SDS_P2;PMS_P1;PMS_P2;Temp;Humidity;BMP_temperature;BMP_pressure;BME280_temperature;BME280_humidity;BME280_pressure;Samples;Min_cycle;Max_cycle;Signal;HPM_P1;HPM_P2
2022/06/19 06:31:03;;;;;;;;;;;;;;;25.35;48.81;99101.59;1088226;46;20438;-78
2022/06/19 06:32:05;;;;;;;;;;;;;;;25.34;48.53;99105.44;1088049;54;19957;-82
2022/06/19 06:34:54;;;;;;;;;;;;;;;25.46;48.74;99115.38;1087587;54;19946;-79
2022/06/19 06:36:48;;;;;;;;;;;;;;;25.55;48.73;99116.50;1088009;54;19943;-78
2022/06/19 06:37:50;;;;;;;;;;;;;;;25.60;48.56;99110.22;1087970;54;19942;-80
2022/06/19 06:38:54;;;;;;;;;;;;;;;25.65;48.57;99119.28;1089918;46;20005;-80
2022/06/19 06:39:55;;;;;;;;;;;;;;;25.73;48.18;99125.34;1087930;54;19967;-80
2022/06/19 06:41:11;;;;;;;;;;;;;;;;;;;;;
2022/06/19 06:53:14;;;;;;;;;;;;;;;26.66;45.39;99107.19;1087649;54;19935;-82
2022/06/19 06:54:18;;;;;;;;;;;;;;;26.77;45.49;99110.78;1087584;54;19962;-81
2022/06/19 06:55:19;;;;;;;;;;;;;;;26.86;44.63;99114.59;1087489;54;19954;-83
2022/06/19 06:56:24;;;;;;;;;;;;;;;27.01;45.13;99118.44;1088532;46;19994;-83
2022/06/19 06:57:25;;;;;;;;;;;;;;;27.11;44.75;99110.22;1087895;46;19973;-80
2022/06/19 06:58:30;;;;;;;;;;;;;;;27.21;44.48;99115.66;1087568;54;19950;-82
2022/06/19 06:59:31;;;;;;;;;;;;;;;27.33;44.50;99111.78;1087687;54;19952;-80
2022/06/19 07:00:35;;;;;;;;;;;;;;;27.41;44.51;99113.94;1087575;54;20561;-81
2022/06/19 07:01:36;;;;;;;;;;;;;;;27.46;44.35;99103.00;1087638;54;20085;-81
2022/06/19 07:02:40;;;;;;;;;;;;;;;27.55;44.09;99109.56;1087557;54;19946;-81
2022/06/19 07:03:41;;;;;;;;;;;;;;;27.45;44.08;99104.09;1094477;39;20625;-81
2022/06/19 07:04:45;;;;;;;;;;;;;;;27.59;43.72;99108.97;1087540;54;20002;-83
2022/06/19 07:05:46;;;;;;;;;;;;;;;27.62;43.48;99101.03;1087591;54;19942;-82
2022/06/19 07:06:50;;;;;;;;;;;;;;;27.62;43.75;99097.44;1087714;54;19938;-81
2022/06/19 07:07:51;;;;;;;;;;;;;;;27.60;43.45;99103.22;1087895;54;19942;-82
2022/06/19 07:08:58;;;;;;;;;;;;;;;27.75;43.11;99096.84;1087939;54;19939;-82
2022/06/19 07:09:59;;;;;;;;;;;;;;;27.83;42.38;99093.50;1087815;54;20056;-81
2022/06/19 07:11:03;;;;;;;;;;;;;;;27.94;42.18;99093.44;1087950;54;19949;-82
2022/06/19 07:12:07;;;;;;;;;;;;;;;28.16;41.97;99085.63;1087902;54;19957;-82
2022/06/19 07:13:09;;;;;;;;;;;;;;;28.33;40.83;99084.44;1087938;47;19943;-82
2022/06/19 07:14:13;;;;;;;;;;;;;;;28.43;41.01;99087.13;1089536;39;20498;-81
2022/06/19 07:15:15;;;;;;;;;;;;;;;28.53;40.09;99096.38;1087801;54;19946;-82
2022/06/19 07:16:18;;;;;;;;;;;;;;;28.57;40.02;99087.28;1087863;54;19943;-84
2022/06/19 07:17:19;;;;;;;;;;;;;;;28.58;39.05;99085.34;1087913;54;19958;-83
2022/06/19 07:18:23;;;;;;;;;;;;;;;28.73;38.84;99082.47;1087930;54;20564;-83
2022/06/19 07:19:25;;;;;;;;;;;;;;;28.79;38.71;99086.81;1088057;54;19943;-83
2022/06/19 07:20:29;;;;;;;;;;;;;;;28.89;38.44;99085.09;1087921;54;19942;-83
2022/06/19 07:21:30;;;;;;;;;;;;;;;29.01;38.11;99092.94;1087964;54;19950;-82
2022/06/19 07:22:34;;;;;;;;;;;;;;;29.13;37.96;99095.28;1088423;46;19938;-80
2022/06/19 07:23:35;;;;;;;;;;;;;;;29.23;37.17;99084.16;1087929;54;19927;-82
2022/06/19 07:24:42;;;;;;;;;;;;;;;29.33;37.74;99086.84;1087891;54;19950;-82
2022/06/19 07:25:43;;;;;;;;;;;;;;;29.21;37.30;99098.22;1087955;54;20614;-84
2022/06/19 07:26:47;;;;;;;;;;;;;;;29.29;37.29;99105.00;1087939;54;19942;-83
2022/06/19 07:27:49;;;;;;;;;;;;;;;29.49;37.05;99089.41;1087908;54;19950;-82
2022/06/19 07:28:52;;;;;;;;;;;;;;;29.59;36.38;99088.47;1088072;54;20222;-83
2022/06/19 07:29:53;;;;;;;;;;;;;;;29.74;36.41;99093.78;1088072;54;19955;-83
2022/06/19 07:30:57;;;;;;;;;;;;;;;29.85;36.62;99098.03;1090134;46;19939;-83
2022/06/19 07:31:59;;;;;;;;;;;;;;;29.95;35.71;99104.53;1088117;54;19949;-83
2022/06/19 07:33:04;;;;;;;;;;;;;;;29.81;35.89;99098.91;1088161;54;19961;-82
2022/06/19 07:34:06;;;;;;;;;;;;;;;29.97;35.77;99099.56;1088069;54;19945;-83
2022/06/19 07:35:10;;;;;;;;;;;;;;;29.98;35.39;99099.25;1087856;54;19982;-83
2022/06/19 07:36:15;;;;;;;;;;;;;;;30.13;35.72;99094.66;1087689;54;19938;-84
2022/06/19 07:37:19;;;;;;;;;;;;;;;30.18;35.19;99100.88;1088298;46;19967;-82
2022/06/19 07:38:20;;;;;;;;;;;;;;;30.15;34.94;99100.66;1087975;54;19939;-84
2022/06/19 07:39:24;;;;;;;;;;;;;;;30.29;35.36;99097.97;1088971;46;19926;-82
2022/06/19 07:40:28;;;;;;;;;;;;;;;30.39;35.29;99097.00;1087887;54;19946;-82
2022/06/19 07:41:32;;;;;;;;;;;;;;;30.25;35.36;99097.75;1088116;54;19939;-82
2022/06/19 07:42:33;;;;;;;;;;;;;;;30.18;35.77;99105.59;1088113;54;19950;-82
2022/06/19 07:43:37;;;;;;;;;;;;;;;30.21;35.60;99101.41;1088178;54;19942;-82
2022/06/19 07:44:39;;;;;;;;;;;;;;;30.27;35.49;99105.75;1088215;54;19942;-82
2022/06/19 07:45:43;;;;;;;;;;;;;;;30.31;35.42;99091.06;1088705;46;19938;-82
2022/06/19 07:50:36;;;;;;;;;;;;;;;30.42;35.06;99096.41;1087741;54;19950;-83
2022/06/19 07:51:38;;;;;;;;;;;;;;;30.47;34.71;99096.31;1087769;54;19923;-83
2022/06/19 07:52:42;;;;;;;;;;;;;;;30.41;34.70;99097.53;1096236;39;20617;-83
2022/06/19 07:53:48;;;;;;;;;;;;;;;30.71;34.56;99103.66;1087963;54;19942;-83
2022/06/19 07:54:49;;;;;;;;;;;;;;;30.85;34.56;99093.50;1089112;46;20693;-83
2022/06/19 07:55:55;;;;;;;;;;;;;;;31.02;34.58;99095.69;1087691;54;19938;-83
2022/06/19 07:56:57;;;;;;;;;;;;;;;31.09;34.19;99101.63;1087584;54;19927;-82
2022/06/19 12:31:09;;;;;;;;;;;;;;;36.55;21.92;98951.41;1089024;46;20092;-83
2022/06/19 12:32:17;;;;;;;;;;;;;;;36.63;21.93;98952.47;1089108;39;20491;-84
2022/06/19 12:33:25;;;;;;;;;;;;;;;36.49;21.63;98952.78;1091523;31;20543;-83
2022/06/19 12:34:30;;;;;;;;;;;;;;;36.52;21.45;98946.53;1088140;54;19942;-83
2022/06/19 12:35:36;;;;;;;;;;;;;;;36.64;21.45;98948.53;1088113;54;20832;-85
2022/06/19 12:36:40;;;;;;;;;;;;;;;36.59;21.43;98945.94;1088138;54;19935;-83
2022/06/19 12:37:41;;;;;;;;;;;;;;;36.57;21.71;98954.66;1088053;54;19971;-83
2022/06/19 12:38:46;;;;;;;;;;;;;;;36.57;21.73;98953.81;1088067;54;19998;-83
2022/06/19 12:39:47;;;;;;;;;;;;;;;36.44;21.48;98951.06;1088096;54;20532;-83
2022/06/19 12:40:58;;;;;;;;;;;;;;;36.44;21.54;98944.66;1088136;54;19950;-83
2022/06/19 12:42:07;;;;;;;;;;;;;;;36.33;21.88;98947.06;1088408;46;19950;-83
2022/06/19 12:43:15;;;;;;;;;;;;;;;36.25;22.07;98948.75;1088055;54;19938;-84
2022/06/19 12:44:33;;;;;;;;;;;;;;;36.18;22.76;98942.97;1088021;54;20625;-82
2022/06/19 12:45:42;;;;;;;;;;;;;;;36.25;22.85;98937.63;1087733;54;19949;-84
2022/06/19 12:46:49;;;;;;;;;;;;;;;36.35;22.93;98947.53;1089743;39;20540;-86
2022/06/19 12:47:57;;;;;;;;;;;;;;;36.38;22.80;98938.47;1088159;39;20718;-84
2022/06/19 12:49:10;;;;;;;;;;;;;;;36.53;22.56;98940.63;1087760;54;19942;-83
2022/06/19 12:50:26;;;;;;;;;;;;;;;36.64;22.75;98942.97;1089669;39;20530;-85
2022/06/19 12:51:31;;;;;;;;;;;;;;;36.37;22.89;98945.22;1087714;54;20002;-85
2022/06/19 12:52:39;;;;;;;;;;;;;;;36.41;22.59;98946.16;1087745;54;19942;-85
2022/06/19 12:53:52;;;;;;;;;;;;;;;36.38;22.77;98944.03;1087836;54;19934;-86
2022/06/19 12:55:12;;;;;;;;;;;;;;;36.44;22.41;98939.09;1091763;39;20561;-83
2022/06/19 12:56:20;;;;;;;;;;;;;;;36.58;22.75;98938.75;1087729;54;19973;-83
2022/06/19 12:57:30;;;;;;;;;;;;;;;36.47;22.51;98939.22;1087763;54;19973;-84
2022/06/19 12:58:47;;;;;;;;;;;;;;;36.58;22.70;98927.63;1087840;54;19950;-82
2022/06/19 13:00:09;;;;;;;;;;;;;;;36.52;22.98;98941.78;1088045;54;19943;-85
2022/06/19 13:01:17;;;;;;;;;;;;;;;36.44;23.21;98939.91;1088091;54;19927;-84
2022/06/19 13:02:23;;;;;;;;;;;;;;;36.60;23.25;98930.88;1088205;54;19938;-85
2022/06/19 13:03:33;;;;;;;;;;;;;;;36.73;22.93;98924.19;1088406;54;19923;-85
2022/06/19 13:04:45;;;;;;;;;;;;;;;36.68;22.92;98930.78;1088267;54;19939;-84
2022/06/19 13:05:52;;;;;;;;;;;;;;;36.56;22.24;98929.97;1088175;54;19954;-85
2022/06/19 13:07:10;;;;;;;;;;;;;;;36.54;22.36;98933.09;1092536;46;19923;-83
2022/06/19 13:08:16;;;;;;;;;;;;;;;36.47;22.28;98932.84;1087987;54;19946;-83
2022/06/19 13:09:25;;;;;;;;;;;;;;;36.38;22.04;98930.13;1091793;39;20439;-82
2022/06/19 13:10:44;;;;;;;;;;;;;;;36.57;21.96;98937.13;1087109;54;19942;-85
2022/06/19 13:11:50;;;;;;;;;;;;;;;36.41;22.59;98935.03;1087236;54;19957;-83
2022/06/19 13:13:02;;;;;;;;;;;;;;;36.45;22.78;98935.97;1087470;54;19943;-85
2022/06/19 13:14:14;;;;;;;;;;;;;;;36.57;22.81;98929.63;1087355;54;19939;-81
2022/06/19 13:15:27;;;;;;;;;;;;;;;36.41;22.89;98932.25;1087500;54;19950;-81
2022/06/19 13:16:33;;;;;;;;;;;;;;;36.53;22.90;98932.28;1087833;39;20406;-83
2022/06/19 13:17:43;;;;;;;;;;;;;;;36.48;22.59;98932.50;1087555;54;19946;-82
2022/06/19 13:18:56;;;;;;;;;;;;;;;36.56;22.69;98927.19;1088052;54;19954;-83
2022/06/19 13:20:04;;;;;;;;;;;;;;;36.66;22.69;98923.91;1087557;54;19945;-79
2022/06/19 13:21:14;;;;;;;;;;;;;;;36.74;22.45;98924.97;1087698;54;19946;-84
2022/06/19 13:22:20;;;;;;;;;;;;;;;36.50;22.62;98921.84;1089541;39;20622;-81
2022/06/19 13:23:28;;;;;;;;;;;;;;;36.35;22.73;98923.28;1089167;46;20620;-85
2022/06/19 13:24:37;;;;;;;;;;;;;;;36.35;22.83;98922.50;1087983;54;19939;-81
2022/06/19 13:25:45;;;;;;;;;;;;;;;36.48;22.75;98923.34;1087471;54;20027;-80
2022/06/19 13:28:20;;;;;;;;;;;;;;;36.67;22.66;98918.03;1087949;54;20567;-82
2022/06/19 13:29:27;;;;;;;;;;;;;;;36.56;22.77;98911.28;1087660;54;19945;-81
2022/06/19 13:30:35;;;;;;;;;;;;;;;36.47;22.98;98916.94;1087475;54;19953;-82
2022/06/19 13:31:38;;;;;;;;;;;;;;;36.45;22.82;98918.47;1086750;54;19958;-81
2022/06/19 13:32:48;;;;;;;;;;;;;;;36.51;22.62;98906.75;1087665;54;19942;-84
2022/06/19 13:34:05;;;;;;;;;;;;;;;36.62;22.64;98912.66;1087067;54;19958;-83
2022/06/19 13:35:16;;;;;;;;;;;;;;;36.49;22.98;98909.06;1087246;54;20599;-85
2022/06/19 13:36:24;;;;;;;;;;;;;;;36.46;22.73;98909.78;1087108;54;19935;-83
2022/06/19 13:37:41;;;;;;;;;;;;;;;36.51;23.02;98906.75;1087548;54;19946;-81
2022/06/19 13:38:57;;;;;;;;;;;;;;;36.58;22.71;98902.59;1087422;54;19957;-82
2022/06/19 13:40:01;;;;;;;;;;;;;;;36.60;22.67;98903.88;1087444;54;19959;-84
2022/06/19 13:41:11;;;;;;;;;;;;;;;36.40;22.75;98897.22;1088278;46;19946;-80
2022/06/19 13:42:22;;;;;;;;;;;;;;;36.37;23.08;98897.94;1087369;54;19952;-82
2022/06/19 13:43:40;;;;;;;;;;;;;;;36.43;23.02;98893.78;1087735;54;20016;-85
2022/06/19 13:44:47;;;;;;;;;;;;;;;36.36;22.76;98904.66;1087892;54;19927;-85
2022/06/19 13:45:58;;;;;;;;;;;;;;;36.25;23.07;98897.91;1087650;54;20458;-83
2022/06/19 13:47:05;;;;;;;;;;;;;;;36.39;22.95;98898.38;1088045;54;19950;-83
2022/06/19 13:48:10;;;;;;;;;;;;;;;36.43;22.65;98893.78;1088148;54;19935;-83
2022/06/19 13:49:19;;;;;;;;;;;;;;;36.51;23.12;98892.84;1090435;46;19970;-83
2022/06/19 13:50:24;;;;;;;;;;;;;;;36.37;23.10;98884.03;1088393;54;19942;-85
2022/06/19 13:51:31;;;;;;;;;;;;;;;36.35;23.15;98891.91;1088413;54;21028;-83
2022/06/19 13:52:38;;;;;;;;;;;;;;;36.23;23.13;98890.72;1088392;54;19954;-84
2022/06/19 13:53:45;;;;;;;;;;;;;;;36.42;23.04;98886.59;1088438;54;19949;-82
2022/06/19 13:54:50;;;;;;;;;;;;;;;36.61;22.94;98882.41;1088440;54;19927;-84
2022/06/19 13:56:01;;;;;;;;;;;;;;;36.68;22.92;98883.47;1088374;54;19945;-83
2022/06/19 13:57:09;;;;;;;;;;;;;;;36.64;22.71;98881.72;1088447;54;19933;-82
2022/06/19 13:58:13;;;;;;;;;;;;;;;36.76;22.51;98878.13;1089940;46;19942;-82
2022/06/19 13:59:28;;;;;;;;;;;;;;;36.85;22.12;98871.25;1088399;54;20520;-83
2022/06/19 14:00:40;;;;;;;;;;;;;;;36.92;22.11;98879.06;1088340;54;19966;-83
2022/06/19 14:01:44;;;;;;;;;;;;;;;37.10;21.95;98873.22;1088391;54;19943;-83
2022/06/19 14:03:02;;;;;;;;;;;;;;;37.09;21.80;98871.59;1088418;54;19948;-83
2022/06/19 14:05:51;;;;;;;;;;;;;;;37.21;21.53;98870.78;1087968;39;20589;-83
2022/06/19 14:06:59;;;;;;;;;;;;;;;37.53;21.38;98862.53;1088102;54;19943;-83
2022/06/19 14:08:09;;;;;;;;;;;;;;;37.61;21.33;98867.97;1088108;54;19939;-83
2022/06/19 14:09:15;;;;;;;;;;;;;;;37.71;21.36;98866.63;1088146;54;19933;-84
2022/06/19 14:10:26;;;;;;;;;;;;;;;38.10;20.83;98866.09;1087999;54;19938;-83
2022/06/19 14:12:03;;;;;;;;;;;;;;;38.04;20.75;98868.34;1088080;54;19943;-83
2022/06/19 14:12:56;;;;;;;;;;;;;;;38.06;20.54;98860.44;1088086;54;19946;-83
2022/06/19 14:14:02;;;;;;;;;;;;;;;38.08;20.75;98849.72;1088158;54;19943;-83
2022/06/19 14:15:10;;;;;;;;;;;;;;;38.22;20.46;98856.84;1088125;54;19949;-83
2022/06/19 14:16:27;;;;;;;;;;;;;;;38.29;20.51;98862.59;1087987;54;19943;-84
2022/06/19 14:17:36;;;;;;;;;;;;;;;38.31;20.14;98863.03;1088426;54;19950;-84
2022/06/19 14:18:45;;;;;;;;;;;;;;;38.73;20.41;98863.66;1088952;46;19942;-82
2022/06/19 14:19:53;;;;;;;;;;;;;;;39.08;19.98;98851.69;1088427;54;19968;-83
2022/06/19 14:21:00;;;;;;;;;;;;;;;38.92;19.54;98852.53;1088296;54;19942;-83
2022/06/19 14:22:10;;;;;;;;;;;;;;;39.06;19.48;98854.03;1087930;54;19949;-83
2022/06/19 14:23:16;;;;;;;;;;;;;;;39.03;19.81;98854.75;1087993;54;19947;-83
2022/06/19 14:24:23;;;;;;;;;;;;;;;39.15;19.60;98846.25;1088230;54;20364;-83
2022/06/19 14:25:29;;;;;;;;;;;;;;;39.21;19.50;98850.38;1088350;54;19942;-81
2022/06/19 14:26:40;;;;;;;;;;;;;;;39.35;19.54;98846.28;1088354;54;19945;-83
2022/06/19 14:27:53;;;;;;;;;;;;;;;39.33;19.30;98846.66;1088344;54;19947;-83
2022/06/19 14:29:27;;;;;;;;;;;;;;;39.52;18.94;98850.63;1088380;54;19942;-83
2022/06/19 14:30:34;;;;;;;;;;;;;;;39.53;18.99;98839.06;1088273;54;19950;-83
2022/06/19 14:31:38;;;;;;;;;;;;;;;39.93;18.94;98835.06;1088353;54;19930;-82
2022/06/19 14:32:57;;;;;;;;;;;;;;;40.01;18.73;98840.75;1088350;54;19990;-81
2022/06/19 14:34:00;;;;;;;;;;;;;;;40.12;18.59;98838.13;1088420;54;19927;-84
2022/06/19 14:35:21;;;;;;;;;;;;;;;40.20;18.41;98835.13;1088312;54;19938;-84
2022/06/19 14:36:32;;;;;;;;;;;;;;;40.35;18.44;98826.94;1088350;54;19942;-83
2022/06/19 14:37:44;;;;;;;;;;;;;;;40.37;18.48;98830.19;1088355;54;20688;-84
2022/06/19 14:38:48;;;;;;;;;;;;;;;40.31;18.39;98823.31;1088336;54;19954;-83
2022/06/19 14:39:50;;;;;;;;;;;;;;;40.32;18.32;98828.50;1087991;54;19962;-82
2022/06/19 14:41:11;;;;;;;;;;;;;;;40.28;18.39;98833.25;1087867;54;19943;-83
2022/06/19 14:42:13;;;;;;;;;;;;;;;39.64;19.03;98833.69;1088309;54;19943;-85
2022/06/19 18:50:30;;;;;;;;;;;;;;;34.27;25.96;98798.47;1087661;54;19927;-84
2022/06/19 18:51:31;;;;;;;;;;;;;;;34.25;26.21;98797.16;1093949;31;20511;-84
2022/06/19 18:52:37;;;;;;;;;;;;;;;34.25;25.95;98803.53;1087983;54;19955;-83
2022/06/19 18:53:38;;;;;;;;;;;;;;;34.22;26.10;98793.94;1089031;47;19938;-84
2022/06/19 18:54:43;;;;;;;;;;;;;;;34.22;25.80;98795.88;1088056;54;19991;-84
2022/06/19 18:55:44;;;;;;;;;;;;;;;34.20;26.04;98792.63;1088778;47;20408;-84
2022/06/19 18:56:48;;;;;;;;;;;;;;;34.20;26.03;98799.00;1088011;54;19943;-85
2022/06/19 18:57:52;;;;;;;;;;;;;;;34.19;26.37;98804.88;1088055;54;19950;-84
2022/06/19 18:58:53;;;;;;;;;;;;;;;34.17;26.23;98793.31;1089590;39;20398;-84
2022/06/19 18:59:57;;;;;;;;;;;;;;;34.18;26.23;98798.50;1087849;54;19935;-82
2022/06/19 19:00:59;;;;;;;;;;;;;;;34.12;26.61;98793.47;1087762;54;19966;-84
2022/06/19 19:02:05;;;;;;;;;;;;;;;34.09;26.69;98800.50;1089320;47;19950;-85
2022/06/19 19:03:07;;;;;;;;;;;;;;;34.08;26.63;98801.66;1088449;47;19942;-84
2022/06/19 19:04:11;;;;;;;;;;;;;;;34.05;26.80;98803.13;1087951;54;19942;-84
2022/06/19 19:05:13;;;;;;;;;;;;;;;34.01;26.81;98807.69;1087803;54;19966;-84
2022/06/19 19:06:20;;;;;;;;;;;;;;;34.02;26.84;98792.69;1087562;54;19943;-84
2022/06/19 19:07:24;;;;;;;;;;;;;;;34.00;27.01;98800.56;1087684;54;19943;-84
2022/06/19 19:08:30;;;;;;;;;;;;;;;33.93;27.56;98800.22;1088886;47;19989;-84
2022/06/19 19:09:36;;;;;;;;;;;;;;;33.86;27.83;98803.53;1088096;39;20619;-85
2022/06/19 19:10:40;;;;;;;;;;;;;;;33.85;27.71;98801.88;1087825;54;19942;-83
2022/06/19 19:11:44;;;;;;;;;;;;;;;33.81;27.92;98803.66;1087692;54;19942;-84
2022/06/19 19:12:46;;;;;;;;;;;;;;;33.75;28.50;98811.34;1087843;54;20736;-83
2022/06/19 19:13:50;;;;;;;;;;;;;;;33.72;27.83;98805.66;1089664;39;20383;-84
2022/06/19 19:14:56;;;;;;;;;;;;;;;33.65;28.49;98806.16;1087903;47;19958;-84
2022/06/19 19:16:02;;;;;;;;;;;;;;;33.61;28.39;98802.44;1087624;54;19942;-82
2022/06/19 19:17:04;;;;;;;;;;;;;;;33.62;28.21;98806.81;1087768;54;19996;-83
2022/06/19 19:18:08;;;;;;;;;;;;;;;33.60;28.42;98814.66;1087758;54;19994;-84
2022/06/19 19:19:17;;;;;;;;;;;;;;;33.56;28.53;98808.94;1087581;54;19943;-84
2022/06/19 19:20:20;;;;;;;;;;;;;;;33.54;28.57;98822.31;1087845;54;19966;-85
2022/06/19 19:21:27;;;;;;;;;;;;;;;33.54;28.87;98813.16;1088088;54;19950;-83
2022/06/19 19:22:30;;;;;;;;;;;;;;;33.51;28.83;98816.63;1087995;54;19983;-84
2022/06/19 19:23:35;;;;;;;;;;;;;;;33.48;28.93;98817.25;1087830;54;20075;-83
2022/06/19 19:24:36;;;;;;;;;;;;;;;33.47;28.82;98813.69;1088054;54;19957;-81
2022/06/19 19:25:41;;;;;;;;;;;;;;;33.44;29.07;98812.38;1087867;54;19942;-85
2022/06/19 19:26:47;;;;;;;;;;;;;;;33.41;29.23;98818.59;1088522;39;20369;-85
2022/06/19 19:27:48;;;;;;;;;;;;;;;33.37;29.35;98820.38;1087639;54;19946;-84
2022/06/19 19:28:54;;;;;;;;;;;;;;;33.37;29.34;98820.38;1087645;54;19962;-84
2022/06/19 19:30:01;;;;;;;;;;;;;;;33.34;29.56;98818.28;1088028;54;20022;-83
2022/06/19 19:31:04;;;;;;;;;;;;;;;33.27;29.70;98824.25;1088120;54;19947;-84
2022/06/19 19:32:08;;;;;;;;;;;;;;;33.09;30.33;98822.63;1088150;54;19938;-84
2022/06/19 19:33:12;;;;;;;;;;;;;;;33.10;30.21;98819.53;1088991;39;20407;-83
2022/06/19 19:34:17;;;;;;;;;;;;;;;33.15;30.19;98817.75;1088585;54;19946;-85
2022/06/19 19:35:22;;;;;;;;;;;;;;;33.13;30.33;98821.66;1088437;54;19942;-84
2022/06/19 19:36:32;;;;;;;;;;;;;;;33.14;30.37;98828.00;1088079;54;19943;-83
2022/06/19 19:37:33;;;;;;;;;;;;;;;33.07;30.60;98820.19;1089083;46;19942;-82
2022/06/19 19:38:38;;;;;;;;;;;;;;;32.94;31.37;98826.69;1088097;54;19980;-82
2022/06/19 19:39:42;;;;;;;;;;;;;;;32.86;31.58;98820.00;1088468;54;19934;-82
2022/06/19 19:40:47;;;;;;;;;;;;;;;32.81;31.05;98823.75;1088426;54;19927;-82
2022/06/19 19:41:52;;;;;;;;;;;;;;;32.79;30.77;98825.22;1089996;46;19974;-83
2022/06/19 19:42:53;;;;;;;;;;;;;;;32.78;30.51;98818.84;1088502;54;19949;-83
2022/06/19 19:43:57;;;;;;;;;;;;;;;32.75;31.12;98822.25;1088454;54;19957;-82
2022/06/19 19:44:58;;;;;;;;;;;;;;;32.73;30.94;98826.47;1088512;54;19946;-82
2022/06/19 19:46:04;;;;;;;;;;;;;;;32.70;30.96;98838.19;1088387;54;19927;-83
2022/06/19 19:47:10;;;;;;;;;;;;;;;32.64;31.01;98830.00;1088394;54;19949;-84
2022/06/19 19:48:16;;;;;;;;;;;;;;;32.57;31.39;98831.66;1088509;54;19927;-83
2022/06/19 19:49:19;;;;;;;;;;;;;;;32.49;32.04;98834.06;1088272;54;19949;-82
2022/06/19 19:50:26;;;;;;;;;;;;;;;32.42;32.13;98847.53;1087963;54;19943;-83
2022/06/19 19:51:33;;;;;;;;;;;;;;;32.36;32.61;98852.38;1088269;54;19950;-82
2022/06/19 19:52:37;;;;;;;;;;;;;;;32.27;33.18;98854.28;1088162;54;19966;-82
2022/06/19 19:53:38;;;;;;;;;;;;;;;32.23;33.60;98847.78;1088329;54;20760;-84
2022/06/19 19:54:42;;;;;;;;;;;;;;;32.17;33.82;98844.31;1088130;54;19949;-83
2022/06/19 19:55:43;;;;;;;;;;;;;;;32.14;33.70;98855.19;1088155;54;19942;-84
2022/06/19 19:56:47;;;;;;;;;;;;;;;32.12;33.29;98854.69;1088425;54;19942;-85
2022/06/19 19:57:49;;;;;;;;;;;;;;;32.10;33.27;98852.25;1088544;54;19938;-83
2022/06/19 19:58:53;;;;;;;;;;;;;;;32.07;33.73;98850.13;1088536;54;19934;-83
2022/06/19 19:59:54;;;;;;;;;;;;;;;31.99;34.14;98851.69;1088518;54;19934;-84
2022/06/19 20:00:59;;;;;;;;;;;;;;;31.95;34.25;98858.16;1088327;54;19927;-83
2022/06/19 20:02:00;;;;;;;;;;;;;;;31.91;34.19;98862.72;1089386;46;19927;-84
2022/06/19 20:03:04;;;;;;;;;;;;;;;31.88;34.37;98864.97;1088544;54;19942;-84
2022/06/19 20:04:08;;;;;;;;;;;;;;;31.91;33.79;98863.53;1091460;46;19938;-84
2022/06/19 20:05:09;;;;;;;;;;;;;;;31.92;33.58;98869.88;1092267;46;19942;-84
2022/06/19 20:11:33;;;;;;;;;;;;;;;31.67;34.02;98869.34;1088277;54;19957;-84
2022/06/19 20:12:34;;;;;;;;;;;;;;;31.65;33.92;98868.84;1088361;54;19954;-82
2022/06/19 20:13:38;;;;;;;;;;;;;;;31.63;34.10;98877.44;1088212;54;19942;-83
2022/06/19 20:14:42;;;;;;;;;;;;;;;31.56;34.58;98885.34;1088668;54;19934;-84
2022/06/19 20:15:43;;;;;;;;;;;;;;;31.42;35.53;98885.41;1088535;54;19951;-83
2022/06/19 20:16:47;;;;;;;;;;;;;;;31.34;35.72;98891.69;1088529;54;19949;-83
2022/06/19 20:17:48;;;;;;;;;;;;;;;31.28;36.36;98883.50;1088601;54;20756;-84
2022/06/19 20:18:52;;;;;;;;;;;;;;;31.21;36.38;98891.41;1088532;54;19927;-84
2022/06/19 20:19:53;;;;;;;;;;;;;;;31.05;37.06;98890.88;1091094;39;20361;-83
2022/06/19 20:20:57;;;;;;;;;;;;;;;30.96;37.25;98896.34;1088555;54;19927;-84
2022/06/19 20:22:03;;;;;;;;;;;;;;;30.91;37.27;98896.41;1088502;54;19962;-84
2022/06/19 20:23:16;;;;;;;;;;;;;;;30.72;38.28;98901.22;1088509;54;19927;-82
2022/06/19 20:24:22;;;;;;;;;;;;;;;30.61;38.69;98895.94;1092369;46;19943;-82
2022/06/19 20:25:26;;;;;;;;;;;;;;;30.53;39.07;98895.84;1088459;54;19942;-84
2022/06/19 20:26:33;;;;;;;;;;;;;;;30.46;38.94;98901.72;1088428;54;20636;-83
2022/06/19 20:27:36;;;;;;;;;;;;;;;30.44;38.90;98903.97;1088481;54;19958;-84
2022/06/19 20:28:42;;;;;;;;;;;;;;;30.37;38.81;98911.81;1089429;46;19934;-83
2022/06/19 20:29:47;;;;;;;;;;;;;;;30.47;38.16;98909.66;1087968;54;19931;-84
2022/06/19 20:30:51;;;;;;;;;;;;;;;30.45;38.67;98913.88;1088085;54;19950;-84
2022/06/19 20:31:52;;;;;;;;;;;;;;;30.46;38.14;98915.50;1088094;54;19942;-84
2022/06/19 20:32:59;;;;;;;;;;;;;;;30.46;38.27;98907.22;1088495;54;19927;-85
2022/06/19 20:34:01;;;;;;;;;;;;;;;30.55;37.65;98907.38;1088458;54;19939;-84
2022/06/19 20:35:08;;;;;;;;;;;;;;;30.55;37.62;98912.91;1088444;54;19962;-84
2022/06/19 20:36:15;;;;;;;;;;;;;;;30.58;37.48;98907.59;1088394;54;19934;-83
2022/06/19 20:37:19;;;;;;;;;;;;;;;30.55;38.04;98912.91;1088444;54;19943;-83
2022/06/19 20:38:25;;;;;;;;;;;;;;;30.45;37.92;98922.13;1088468;54;19943;-84
2022/06/19 20:39:30;;;;;;;;;;;;;;;30.50;38.05;98919.28;1088508;46;19942;-83
2022/06/19 20:40:31;;;;;;;;;;;;;;;30.41;38.00;98923.88;1088447;54;19942;-84
2022/06/19 20:42:51;;;;;;;;;;;;;;;30.35;38.08;98921.19;1088475;54;19942;-83
2022/06/19 20:43:52;;;;;;;;;;;;;;;30.29;37.90;98919.66;1089241;46;19961;-84
2022/06/19 20:44:57;;;;;;;;;;;;;;;30.19;38.27;98928.13;1088312;54;19934;-83
2022/06/19 20:45:58;;;;;;;;;;;;;;;30.30;38.13;98939.78;1088345;54;19931;-83
2022/06/19 20:47:03;;;;;;;;;;;;;;;30.38;37.66;98936.31;1088158;54;19949;-83
2022/06/19 20:48:09;;;;;;;;;;;;;;;30.37;38.14;98942.94;1088031;54;20685;-85
2022/06/19 20:49:14;;;;;;;;;;;;;;;30.36;38.01;98938.56;1088040;54;19949;-82
2022/06/19 20:50:19;;;;;;;;;;;;;;;30.37;38.11;98936.63;1088420;54;19942;-82
2022/06/19 20:51:27;;;;;;;;;;;;;;;30.18;38.68;98932.00;1087769;54;19943;-81
2022/06/19 20:52:33;;;;;;;;;;;;;;;30.23;38.58;98942.09;1088146;54;19999;-83
2022/06/19 20:53:37;;;;;;;;;;;;;;;30.19;38.56;98941.91;1088015;54;19950;-80
2022/06/19 20:54:41;;;;;;;;;;;;;;;30.24;38.85;98933.53;1087986;54;19991;-81
2022/06/19 20:55:42;;;;;;;;;;;;;;;30.26;38.60;98942.31;1088279;54;19922;-82
2022/06/19 20:56:46;;;;;;;;;;;;;;;30.29;38.21;98938.13;1088063;54;20001;-82
2022/06/19 20:57:48;;;;;;;;;;;;;;;30.28;38.56;98940.09;1091009;39;20563;-80
2022/06/19 20:58:51;;;;;;;;;;;;;;;30.25;38.81;98931.59;1087989;54;19977;-82
2022/06/19 20:59:53;;;;;;;;;;;;;;;30.22;38.89;98943.22;1087954;54;19943;-81
2022/06/19 21:00:58;;;;;;;;;;;;;;;30.12;39.37;98938.72;1087814;54;19927;-78
2022/06/19 21:01:59;;;;;;;;;;;;;;;30.14;38.83;98936.47;1090246;39;20496;-79
2022/06/19 21:03:03;;;;;;;;;;;;;;;30.11;39.25;98939.84;1088236;39;20325;-78
2022/06/19 21:04:05;;;;;;;;;;;;;;;30.08;39.03;98940.44;1087942;54;19954;-80
2022/06/19 21:05:09;;;;;;;;;;;;;;;30.03;39.46;98941.34;1087867;54;19942;-81
2022/06/19 21:06:13;;;;;;;;;;;;;;;30.01;38.99;98933.38;1087910;46;19958;-80
2022/06/19 21:07:16;;;;;;;;;;;;;;;29.97;39.59;98940.59;1088054;54;19943;-80
2022/06/19 21:08:23;;;;;;;;;;;;;;;29.90;39.69;98937.38;1088438;54;19941;-81
2022/06/19 21:09:29;;;;;;;;;;;;;;;29.87;39.56;98940.75;1089592;46;19938;-78
2022/06/19 21:10:35;;;;;;;;;;;;;;;29.79;40.28;98935.91;1088401;54;19941;-79
2022/06/19 21:11:37;;;;;;;;;;;;;;;29.82;39.60;98943.59;1088319;54;19943;-80
2022/06/19 21:12:41;;;;;;;;;;;;;;;29.84;39.66;98944.91;1088460;54;19943;-79
2022/06/19 21:13:44;;;;;;;;;;;;;;;29.85;39.48;98948.50;1088473;54;19974;-76
2022/06/19 21:14:48;;;;;;;;;;;;;;;29.83;39.73;98947.97;1088154;54;19942;-79
2022/06/19 21:15:49;;;;;;;;;;;;;;;29.83;39.46;98947.97;1088251;54;19943;-77
2022/06/19 21:16:53;;;;;;;;;;;;;;;29.71;40.27;98949.25;1087963;54;19942;-79
2022/06/19 21:17:57;;;;;;;;;;;;;;;29.42;41.12;98947.47;1088322;54;20857;-80
2022/06/19 21:18:58;;;;;;;;;;;;;;;29.33;41.17;98943.75;1088734;46;19989;-82
2022/06/19 21:20:02;;;;;;;;;;;;;;;29.41;41.03;98951.34;1088597;46;19939;-81
2022/06/19 21:21:05;;;;;;;;;;;;;;;29.45;40.84;98953.50;1088140;54;19965;-82